< Typhoon 196428 1964 Season Typhoon 196430 >
Typhoon 196429 (JOAN)
General InformationTrack Information on Google Maps || Disaster Info.ResourceGoogle EarthGE AnimationAtom FeedGeoJSON
Detalied Best Track (Time Zone = UTC)
Year Month Day Hour Lat. Long. Pressure (hPa) Wind (kt) Class Image Chart
1964 11 4 00 11.0 132.0 1006 0 2 -- Chart
1964 11 4 06 12.0 131.0 1004 0 2 -- Chart
1964 11 4 12 12.0 130.0 1006 0 2 -- Chart
1964 11 4 18 13.0 129.0 1004 0 2 -- Chart
1964 11 5 00 13.4 127.7 1006 0 2 -- Chart
1964 11 5 06 13.0 126.1 1005 0 2 -- Chart
1964 11 5 12 12.1 124.0 1006 0 2 -- Chart
1964 11 5 18 12.0 123.0 1006 0 2 -- Chart
1964 11 6 00 12.0 122.0 1008 0 2 -- Chart
1964 11 6 06 12.0 121.0 1006 0 2 -- Chart
1964 11 6 12 12.6 119.5 1006 0 2 -- Chart
1964 11 6 18 13.0 118.0 1002 0 2 -- Chart
1964 11 7 00 13.0 116.8 1002 0 2 -- Chart
1964 11 7 06 13.0 115.5 1002 0 2 -- Chart
1964 11 7 12 12.9 114.3 1002 0 2 -- Chart
1964 11 7 18 13.0 112.9 1000 0 2 -- Chart
1964 11 8 00 13.1 111.7 1000 0 2 -- Chart
1964 11 8 06 13.2 110.7 1000 0 9 -- Chart
1964 11 8 12 13.0 110.0 1000 0 9 -- Chart
1964 11 8 18 13.0 109.0 1000 0 9 -- Chart
1964 11 9 00 12.5 108.4 1000 0 2 -- Chart
1964 11 9 06 11.5 107.8 1000 0 2 -- Chart
1964 11 9 12 10.6 107.6 1002 0 2 -- Chart
1964 11 9 18 10.0 107.0 1002 0 2 -- Chart
1964 11 10 00 9.5 106.3 1006 0 2 -- Chart
1964 11 10 06 8.9 105.4 1006 0 2 -- Chart
1964 11 10 12 8.4 104.7 1006 0 2 -- Chart
1964 11 10 18 8.0 104.0 1006 0 2 -- Chart
1964 11 11 00 8.0 103.5 1006 0 2 -- Chart
1964 11 11 06 8.0 103.0 1008 0 2 -- Chart
1964 11 11 12 8.5 102.7 1008 0 2 -- Chart
1964 11 11 18 9.0 102.4 1008 0 2 -- Chart
Japan Meteorological Agency Best Track Data | Correction Date : 1989-06-01
< Typhoon 196428 1964 Season Typhoon 196430 >

Help